Toronto, Iowa
Current Conditions -  °F | °C
As of 11:52 PM on Saturday 22 Nov 2014 (Local Time) from KDVN Reporting Station
Overcast Overcast  
Wind Chill: 50°   Ceiling: 700
Heat Index: 50°   Visibility: 10mi
Dew Point: 47°   Wind: 16mph
Humidity: 89%   Direction: 180°S
Pressure: 29.76"   Gusts: NA
Location:  41.8735°N, 90.8033°W
Report Text: KDVN 230552Z AUTO 18014KT 10SM OVC007 10/08 A2976 RMK AO2 SLP078 T01000083 10122 20100 401220006 56010
Loading
Personal Weather Stations






























Interactive Weather Map New forecast layout! Learn more

10-Day Weather Forecast

Advertisements
Track Severe Weather on mobile